Time;durP1;ratioP1;P1;durP2;ratioP2;P2;SDS_P1;SDS_P2;PMS_P1;PMS_P2;Temp;Humidity;BMP_temperature;BMP_pressure;BME280_temperature;BME280_humidity;BME280_pressure;Samples;Min_cycle;Max_cycle;Signal;HPM_P1;HPM_P2
2022/02/08 00:00:38;;;;;;;5.40;4.00;;;;;;;-0.28;71.91;96813.64;110247;1247;60542;-69
2022/02/08 00:03:12;;;;;;;5.90;3.80;;;;;;;-0.32;71.31;96814.96;110537;1245;72167;-69
2022/02/08 00:05:42;;;;;;;5.60;3.70;;;;;;;-0.32;71.86;96823.19;110439;1246;68446;-70
2022/02/08 00:08:11;;;;;;;5.10;4.00;;;;;;;-0.34;71.84;96821.58;110235;1246;68742;-70
2022/02/08 00:10:40;;;;;;;5.70;3.70;;;;;;;-0.37;71.82;96828.34;110376;1245;60456;-69
2022/02/08 00:13:09;;;;;;;4.40;3.30;;;;;;;-0.34;71.71;96833.02;110470;1245;60451;-68
2022/02/08 00:15:38;;;;;;;7.00;5.70;;;;;;;-0.34;71.89;96837.66;110251;1247;71661;-69
2022/02/08 00:18:07;;;;;;;7.00;3.70;;;;;;;-0.41;71.89;96841.02;110388;1246;67870;-68
2022/02/08 00:20:36;;;;;;;6.80;3.60;;;;;;;-0.42;71.49;96847.22;110297;1246;68417;-68
2022/02/08 00:23:05;;;;;;;6.10;3.90;;;;;;;-0.41;71.78;96852.31;110358;1247;60492;-68
2022/02/08 00:25:34;;;;;;;5.50;4.40;;;;;;;-0.38;71.74;96849.99;110481;1247;60548;-69
2022/02/08 00:28:04;;;;;;;5.60;4.30;;;;;;;-0.36;71.52;96862.06;110318;1244;71616;-68
2022/02/08 00:30:33;;;;;;;7.40;4.20;;;;;;;-0.35;71.51;96861.16;110197;1247;68621;-70
2022/02/08 00:33:02;;;;;;;6.50;4.20;;;;;;;-0.32;71.35;96857.09;110110;1244;68719;-68
2022/02/08 00:35:31;;;;;;;6.10;2.80;;;;;;;-0.32;71.13;96860.87;110377;1244;60436;-69
2022/02/08 00:38:00;;;;;;;5.00;3.60;;;;;;;-0.29;71.19;96863.83;110447;1246;60482;-69
2022/02/08 00:40:30;;;;;;;5.60;3.90;;;;;;;-0.24;71.03;96865.20;110236;1247;72389;-70
2022/02/08 00:43:01;;;;;;;6.20;3.90;;;;;;;-0.25;71.22;96874.29;110513;1246;67712;-69
2022/02/08 00:45:48;;;;;;;6.70;4.40;;;;;;;-0.22;70.87;96871.98;110183;1247;68954;-70
2022/02/08 00:48:29;;;;;;;6.40;4.20;;;;;;;-0.23;70.72;96872.70;110533;1245;61063;-69
2022/02/08 00:50:59;;;;;;;8.40;5.90;;;;;;;-0.25;70.63;96874.30;110573;1246;60475;-68
2022/02/08 00:53:28;;;;;;;6.30;4.50;;;;;;;-0.24;70.66;96879.76;110461;1246;72262;-70
2022/02/08 00:55:58;;;;;;;7.80;4.80;;;;;;;-0.23;70.67;96881.10;110389;1247;67870;-68
2022/02/08 00:58:27;;;;;;;5.30;3.80;;;;;;;-0.23;70.30;96883.98;110443;1245;68667;-68
2022/02/08 01:00:58;;;;;;;4.20;3.80;;;;;;;-0.27;70.33;96884.13;110429;1245;60885;-70
2022/02/08 01:03:28;;;;;;;5.30;3.50;;;;;;;-0.29;70.44;96884.56;110164;1248;60513;-69
2022/02/08 01:06:07;;;;;;;7.50;3.50;;;;;;;-0.31;70.33;96883.25;110220;1246;71619;-69
2022/02/08 01:08:39;;;;;;;4.30;3.40;;;;;;;-0.33;70.47;96892.25;110149;1247;67831;-69
2022/02/08 01:11:11;;;;;;;5.90;3.60;;;;;;;-0.34;70.43;96897.09;110147;1247;68735;-69
2022/02/08 01:13:41;;;;;;;4.30;3.10;;;;;;;-0.38;70.53;96902.36;110246;1247;60581;-68
2022/02/08 01:16:11;;;;;;;5.00;3.70;;;;;;;-0.39;70.42;96898.81;110447;1246;60485;-69
2022/02/08 01:18:43;;;;;;;3.70;3.20;;;;;;;-0.35;70.33;96904.62;109972;1247;71692;-68
2022/02/08 01:21:12;;;;;;;6.30;3.80;;;;;;;-0.37;70.21;96907.96;110513;1244;68505;-68
2022/02/08 01:23:41;;;;;;;5.60;4.00;;;;;;;-0.39;70.36;96911.83;110554;1244;69901;-67
2022/02/08 01:26:15;;;;;;;5.30;3.30;;;;;;;-0.44;70.40;96915.11;110527;1244;60564;-68
2022/02/08 01:29:01;;;;;;;6.20;4.30;;;;;;;-0.46;70.39;96917.73;110183;1247;60533;-68
2022/02/08 01:31:36;;;;;;;6.20;3.50;;;;;;;-0.47;70.50;96919.48;110333;1247;72272;-69
2022/02/08 01:34:22;;;;;;;3.90;3.30;;;;;;;-0.46;70.48;96922.69;110224;1247;68704;-69
2022/02/08 01:37:22;;;;;;;4.00;3.30;;;;;;;-0.46;70.53;96925.63;110214;1247;68492;-69
2022/02/08 01:40:06;;;;;;;5.50;3.40;;;;;;;-0.43;70.04;96927.89;110166;1247;60884;-69
2022/02/08 01:43:07;;;;;;;6.40;3.30;;;;;;;-0.41;69.85;96932.79;110102;1248;60480;-69
2022/02/08 01:48:29;;;;;;;6.60;3.60;;;;;;;-0.36;69.81;96940.64;110231;1247;66983;-69
2022/02/08 01:50:58;;;;;;;5.80;3.90;;;;;;;-0.36;69.83;96941.02;110137;1247;69497;-68
2022/02/08 01:53:27;;;;;;;8.40;3.40;;;;;;;-0.37;69.70;96945.14;110248;1245;60500;-68
2022/02/08 01:55:57;;;;;;;5.70;3.90;;;;;;;-0.36;69.67;96950.22;110225;1247;60482;-68
2022/02/08 01:58:27;;;;;;;5.20;3.40;;;;;;;-0.38;69.63;96950.80;110283;1247;71747;-69
2022/02/08 02:01:03;;;;;;;4.70;3.30;;;;;;;-0.38;69.65;96952.53;110211;1247;68605;-68
2022/02/08 02:03:34;;;;;;;5.50;3.20;;;;;;;-0.38;69.43;96953.90;110473;1246;67600;-67
2022/02/08 02:06:03;;;;;;;3.90;3.10;;;;;;;-0.40;69.37;96959.27;110184;1247;60553;-69
2022/02/08 02:08:33;;;;;;;4.00;3.30;;;;;;;-0.39;69.21;96959.27;110179;1247;60894;-68
2022/02/08 02:11:03;;;;;;;5.20;3.40;;;;;;;-0.42;69.41;96963.61;110238;1247;72449;-68
2022/02/08 02:13:43;;;;;;;3.60;3.00;;;;;;;-0.42;69.25;96966.55;110387;1246;68257;-68
2022/02/08 02:16:22;;;;;;;3.90;2.90;;;;;;;-0.46;69.29;96971.31;110425;1246;69780;-68
2022/02/08 02:18:52;;;;;;;3.50;2.90;;;;;;;-0.45;69.22;96977.28;110380;1246;60545;-68
2022/02/08 02:21:24;;;;;;;5.20;2.80;;;;;;;-0.46;69.06;96979.18;110254;1247;60551;-68
2022/02/08 02:23:54;;;;;;;5.00;3.50;;;;;;;-0.48;69.16;96984.59;110389;1247;71391;-68
2022/02/08 02:26:25;;;;;;;4.40;2.90;;;;;;;-0.53;69.21;96992.44;110237;1247;66918;-68
2022/02/08 02:28:54;;;;;;;3.90;2.90;;;;;;;-0.55;69.01;96992.50;110335;1246;68470;-68
2022/02/08 02:31:24;;;;;;;4.20;3.40;;;;;;;-0.58;69.31;96993.30;110043;1247;60521;-68
2022/02/08 02:33:54;;;;;;;4.80;3.20;;;;;;;-0.64;69.09;96994.70;110307;1247;60473;-68
2022/02/08 02:36:27;;;;;;;3.60;3.00;;;;;;;-0.68;69.35;97002.54;110235;1244;70725;-68
2022/02/08 02:38:56;;;;;;;5.90;3.40;;;;;;;-0.71;69.14;97006.43;110193;1247;66679;-68
2022/02/08 02:41:26;;;;;;;;;;;;;;;-0.73;69.17;97008.39;110218;1247;68437;-68
2022/02/08 02:43:58;;;;;;;5.20;3.00;;;;;;;-0.76;69.30;97011.72;110349;1244;60537;-67
2022/02/08 02:46:28;;;;;;;4.20;3.10;;;;;;;-0.80;69.52;97016.32;110367;1245;60489;-68
2022/02/08 02:48:57;;;;;;;5.20;2.50;;;;;;;-0.84;69.52;97020.89;110583;1246;72840;-68
2022/02/08 02:51:28;;;;;;;4.40;2.90;;;;;;;-0.86;69.59;97026.79;110249;1247;68614;-68
2022/02/08 02:53:59;;;;;;;6.30;3.70;;;;;;;-0.88;69.52;97030.45;110244;1247;68649;-68
2022/02/08 02:56:30;;;;;;;5.60;3.30;;;;;;;-0.90;69.95;97033.23;110200;1247;60520;-70
2022/02/08 02:59:03;;;;;;;4.10;2.70;;;;;;;-0.90;69.86;97044.20;110204;1247;60615;-68
2022/02/08 03:01:55;;;;;;;3.90;3.00;;;;;;;-0.91;69.76;97048.50;110182;1247;72147;-70
2022/02/08 03:20:49;;;;;;;3.80;2.80;;;;;;;-0.95;70.10;97063.36;110306;1247;69472;-68
2022/02/08 03:23:20;;;;;;;4.70;2.60;;;;;;;-0.95;69.99;97063.70;110290;1247;60545;-68
2022/02/08 03:25:54;;;;;;;7.00;3.50;;;;;;;-0.97;70.31;97068.04;110160;1247;60518;-67
2022/02/08 03:28:29;;;;;;;6.60;3.50;;;;;;;-1.00;70.40;97068.83;110052;1247;71415;-67
2022/02/08 03:31:00;;;;;;;6.00;3.30;;;;;;;-1.05;70.40;97071.86;110313;1247;67666;-68
2022/02/08 03:33:32;;;;;;;4.10;3.10;;;;;;;-1.07;70.39;97066.29;110163;1247;69443;-68
2022/02/08 03:36:04;;;;;;;5.90;4.00;;;;;;;-1.09;70.50;97072.88;110408;1246;60487;-67
2022/02/08 03:38:40;;;;;;;3.60;2.80;;;;;;;-1.13;70.78;97081.86;110174;1247;60542;-68
2022/02/08 03:41:11;;;;;;;5.00;3.60;;;;;;;-1.16;71.01;97084.04;110173;1247;70399;-68
2022/02/08 03:43:45;;;;;;;5.50;3.10;;;;;;;-1.18;71.13;97089.89;110211;1247;68713;-67
2022/02/08 03:46:29;;;;;;;5.20;3.30;;;;;;;-1.26;71.30;97098.86;110431;1246;69238;-68
2022/02/08 03:49:00;;;;;;;4.80;3.50;;;;;;;-1.31;71.36;97106.73;110187;1247;60463;-67
2022/02/08 03:51:36;;;;;;;5.10;3.90;;;;;;;-1.42;71.99;97110.31;110209;1247;60474;-69
2022/02/08 03:54:08;;;;;;;7.00;3.70;;;;;;;-1.51;72.16;97116.56;110209;1248;71509;-68
2022/02/08 03:56:37;;;;;;;5.00;3.60;;;;;;;-1.56;72.26;97121.13;110517;1247;68583;-68
2022/02/08 03:59:07;;;;;;;5.00;3.50;;;;;;;-1.60;72.56;97127.59;110125;1244;69245;-68
2022/02/08 04:09:45;;;;;;;5.90;3.60;;;;;;;-1.84;73.03;97155.77;110245;1247;68600;-68
2022/02/08 04:12:27;;;;;;;6.40;3.40;;;;;;;-1.88;73.30;97161.52;110245;1246;69471;-68
2022/02/08 04:31:24;;;;;;;6.30;3.50;;;;;;;-2.05;73.70;97176.33;110359;1246;71769;-69
2022/02/08 04:34:25;;;;;;;6.70;3.70;;;;;;;-2.35;74.40;97204.05;110373;1247;71410;-69
2022/02/08 04:42:29;;;;;;;8.80;5.40;;;;;;;-2.49;74.67;97227.30;110327;1246;60551;-68
2022/02/08 04:45:21;;;;;;;5.70;4.00;;;;;;;-2.55;74.63;97238.52;110190;1247;60554;-67
2022/02/08 04:50:28;;;;;;;7.00;4.00;;;;;;;-2.53;76.05;97248.38;110416;1246;68691;-68
2022/02/08 04:53:05;;;;;;;7.00;4.70;;;;;;;-2.50;76.05;97252.23;110357;1246;69404;-68
2022/02/08 04:58:30;;;;;;;7.60;5.40;;;;;;;-2.42;76.55;97254.41;110322;1247;60466;-67
2022/02/08 05:01:16;;;;;;;9.30;4.70;;;;;;;-2.43;76.30;97265.02;110472;1244;71501;-67
2022/02/08 05:42:25;;;;;;;7.90;5.40;;;;;;;-2.47;77.85;97346.19;110521;1244;71995;-67
2022/02/08 05:45:01;;;;;;;10.50;5.70;;;;;;;-2.50;77.63;97351.70;110497;1247;68639;-69
2022/02/08 05:47:40;;;;;;;12.50;7.30;;;;;;;-2.55;78.22;97353.85;110419;1244;69413;-66
2022/02/08 05:53:05;;;;;;;44.60;23.50;;;;;;;-2.63;78.61;97365.11;110443;1243;60541;-69
2022/02/08 05:55:34;;;;;;;17.10;9.50;;;;;;;-2.62;78.18;97367.15;110544;1244;72437;-69
2022/02/08 05:58:04;;;;;;;54.60;32.10;;;;;;;-2.66;78.37;97370.11;110524;1244;67901;-67
2022/02/08 06:00:33;;;;;;;26.50;15.70;;;;;;;-2.68;79.36;97374.10;110520;1244;68704;-68
2022/02/08 06:03:11;;;;;;;15.60;10.00;;;;;;;-2.69;79.14;97378.89;110489;1244;60537;-68
2022/02/08 06:05:49;;;;;;;12.90;8.40;;;;;;;-2.68;79.54;97381.27;110260;1244;60425;-70
2022/02/08 06:08:19;;;;;;;9.60;6.60;;;;;;;-2.67;79.90;97394.20;110505;1244;71965;-68
2022/02/08 06:10:54;;;;;;;15.40;8.20;;;;;;;-2.64;79.09;97395.67;110439;1245;67869;-68
2022/02/08 06:13:23;;;;;;;10.60;6.10;;;;;;;-2.62;78.79;97399.40;110167;1247;69511;-67
2022/02/08 06:16:00;;;;;;;11.10;6.90;;;;;;;-2.60;78.62;97410.45;110092;1247;60564;-67
2022/02/08 06:18:32;;;;;;;7.90;5.80;;;;;;;-2.58;78.32;97414.16;110539;1244;60510;-67
2022/02/08 06:21:01;;;;;;;14.00;7.90;;;;;;;-2.50;79.09;97423.39;110526;1244;72317;-67
2022/02/08 06:23:30;;;;;;;11.50;7.10;;;;;;;-2.46;80.29;97429.62;110464;1245;66991;-67
2022/02/08 06:25:59;;;;;;;10.70;6.40;;;;;;;-2.41;79.82;97431.40;110520;1244;68731;-67
2022/02/08 06:28:28;;;;;;;10.20;6.60;;;;;;;-2.39;79.62;97435.77;110475;1244;60500;-67
2022/02/08 06:30:58;;;;;;;10.50;6.80;;;;;;;-2.37;79.54;97438.65;110465;1245;60427;-67
2022/02/08 06:33:27;;;;;;;11.60;7.20;;;;;;;-2.34;79.02;97439.95;110521;1245;73034;-68
2022/02/08 06:35:56;;;;;;;12.20;6.40;;;;;;;-2.32;78.79;97443.83;110485;1244;67659;-67
2022/02/08 06:38:28;;;;;;;11.80;6.60;;;;;;;-2.28;78.55;97448.69;110445;1244;69386;-68
2022/02/08 06:40:57;;;;;;;14.20;11.80;;;;;;;-2.17;78.10;97457.00;110227;1247;60485;-68
2022/02/08 06:43:29;;;;;;;17.80;11.30;;;;;;;-2.03;78.57;97458.91;110499;1245;60493;-67
2022/02/08 06:46:00;;;;;;;12.00;7.70;;;;;;;-1.85;78.25;97462.25;110524;1244;72391;-70
2022/02/08 06:48:30;;;;;;;10.90;7.10;;;;;;;-1.63;77.85;97466.73;110449;1244;68614;-68
2022/02/08 06:51:01;;;;;;;11.10;7.60;;;;;;;-1.43;77.39;97456.85;110553;1244;69747;-68
2022/02/08 06:53:30;;;;;;;16.50;9.60;;;;;;;-1.26;76.95;97465.66;110525;1245;60529;-68
2022/02/08 06:56:02;;;;;;;10.70;8.70;;;;;;;-1.11;76.39;97465.27;110250;1244;60512;-67
2022/02/08 06:58:47;;;;;;;12.10;10.80;;;;;;;-0.90;75.60;97475.69;110480;1244;71382;-67
2022/02/08 07:01:17;;;;;;;11.00;6.60;;;;;;;-0.76;75.29;97480.44;110041;1244;583938;-68
2022/02/08 07:03:48;;;;;;;10.90;8.10;;;;;;;-0.65;75.13;97485.79;110474;1244;70055;-68
2022/02/08 07:06:17;;;;;;;9.70;6.70;;;;;;;-0.55;74.55;97493.58;110547;1244;60529;-68
2022/02/08 07:08:46;;;;;;;8.10;5.90;;;;;;;-0.43;73.80;97495.66;110452;1244;60547;-68
2022/02/08 07:11:16;;;;;;;10.80;8.30;;;;;;;-0.35;73.70;97499.02;110468;1245;72363;-68
2022/02/08 07:13:45;;;;;;;9.40;5.90;;;;;;;-0.25;73.57;97499.27;110360;1244;68592;-70
2022/02/08 07:16:16;;;;;;;7.20;5.90;;;;;;;-0.18;73.14;97501.80;110428;1245;69369;-70
2022/02/08 07:18:46;;;;;;;7.80;5.80;;;;;;;-0.17;72.73;97499.22;110179;1244;60526;-68
2022/02/08 07:21:15;;;;;;;15.70;10.90;;;;;;;-0.14;72.83;97505.12;110499;1244;60524;-70
2022/02/08 07:23:44;;;;;;;13.40;10.10;;;;;;;-0.01;72.65;97502.35;110179;1247;72384;-68
2022/02/08 07:26:13;;;;;;;14.40;9.30;;;;;;;0.52;71.87;97510.68;110462;1244;68075;-68
2022/02/08 07:28:43;;;;;;;18.00;12.40;;;;;;;1.39;70.32;97509.73;110221;1247;69099;-68
2022/02/08 07:31:22;;;;;;;26.50;17.90;;;;;;;2.23;68.25;97520.08;110508;1245;60467;-68
2022/02/08 07:33:59;;;;;;;13.60;9.50;;;;;;;2.98;64.25;97517.32;110415;1245;60542;-69
2022/02/08 07:36:42;;;;;;;23.50;17.00;;;;;;;3.60;64.28;97519.02;110270;1244;71597;-68
2022/02/08 07:39:22;;;;;;;11.60;8.60;;;;;;;4.25;60.03;97521.81;110467;1244;67977;-67
2022/02/08 07:41:51;;;;;;;10.30;8.30;;;;;;;4.75;58.43;97523.62;110422;1244;69405;-68
2022/02/08 07:44:20;;;;;;;8.20;7.40;;;;;;;5.10;56.77;97528.52;110434;1247;60444;-68
2022/02/08 07:46:54;;;;;;;10.60;8.30;;;;;;;5.35;55.93;97530.93;110509;1244;60480;-68
2022/02/08 07:49:23;;;;;;;7.60;5.60;;;;;;;5.48;54.59;97534.93;110441;1244;71674;-70
2022/02/08 07:51:52;;;;;;;7.90;6.90;;;;;;;5.67;55.74;97545.92;110559;1245;68727;-68
2022/02/08 07:54:21;;;;;;;8.00;6.30;;;;;;;5.73;54.39;97550.77;110543;1244;67638;-68
2022/02/08 07:56:50;;;;;;;9.60;8.00;;;;;;;5.65;55.10;97555.52;110539;1244;60500;-69
2022/02/08 07:59:19;;;;;;;6.60;5.30;;;;;;;5.15;54.26;97557.13;110565;1244;60542;-68
2022/02/08 08:01:48;;;;;;;8.60;6.10;;;;;;;4.74;55.19;97565.83;110257;1247;72258;-68
2022/02/08 08:04:17;;;;;;;9.00;5.70;;;;;;;4.37;56.18;97565.77;110064;1247;67906;-69
2022/02/08 08:06:46;;;;;;;11.50;8.40;;;;;;;4.16;56.88;97565.02;110248;1247;68777;-69
2022/02/08 08:09:17;;;;;;;14.20;11.80;;;;;;;4.00;57.16;97569.70;110419;1245;60552;-67
2022/02/08 08:11:47;;;;;;;;;;;;;;;3.88;57.04;97568.85;110461;1244;60466;-68
2022/02/08 08:14:18;;;;;;;16.90;15.20;;;;;;;3.73;57.51;97569.33;110559;1244;72236;-68
2022/02/08 08:16:59;;;;;;;9.50;6.30;;;;;;;3.87;58.03;97575.27;110264;1247;68610;-68
2022/02/08 08:19:37;;;;;;;;;;;;;;;4.25;56.45;97573.92;110412;1245;69265;-68
2022/02/08 08:22:08;;;;;;;7.00;4.50;;;;;;;4.50;56.01;97577.46;110453;1245;60526;-69
2022/02/08 08:24:37;;;;;;;10.70;9.00;;;;;;;4.82;56.00;97583.38;110220;1244;60436;-70
2022/02/08 08:27:07;;;;;;;12.00;9.30;;;;;;;5.16;55.12;97587.98;110404;1246;72924;-69
2022/02/08 08:29:36;;;;;;;7.90;4.60;;;;;;;5.37;54.01;97591.29;110221;1246;68566;-68
2022/02/08 08:32:07;;;;;;;7.20;5.50;;;;;;;5.33;54.00;97591.48;110359;1246;69124;-67
2022/02/08 08:34:36;;;;;;;;;;;;;;;5.49;54.03;97592.45;110110;1247;60548;-69
2022/02/08 08:37:06;;;;;;;9.40;5.40;;;;;;;5.93;53.29;97595.41;110574;1245;60567;-71
2022/02/08 08:39:46;;;;;;;6.80;4.30;;;;;;;6.54;51.04;97597.26;110526;1244;72769;-68
2022/02/08 08:50:14;;;;;;;6.40;4.80;;;;;;;8.86;44.86;97602.72;110177;1247;60479;-69
2022/02/08 08:52:46;;;;;;;5.90;4.10;;;;;;;9.47;43.81;97610.81;110219;1246;72990;-69
2022/02/08 08:55:16;;;;;;;8.50;4.90;;;;;;;9.94;44.00;97613.60;110442;1245;68564;-69
2022/02/08 08:57:45;;;;;;;8.50;4.90;;;;;;;10.13;41.79;97615.83;110487;1245;69454;-69
2022/02/08 09:00:14;;;;;;;6.90;4.30;;;;;;;9.71;41.57;97617.89;110420;1247;60484;-69
2022/02/08 09:02:43;;;;;;;6.70;4.20;;;;;;;9.36;42.60;97616.88;110492;1245;60538;-68
2022/02/08 09:05:14;;;;;;;7.00;4.40;;;;;;;9.15;42.56;97619.45;110401;1244;71577;-69
2022/02/08 09:07:43;;;;;;;5.80;3.60;;;;;;;10.02;42.01;97620.91;110527;1246;69587;-70
2022/02/08 09:10:17;;;;;;;5.80;3.70;;;;;;;10.74;38.92;97632.73;110532;1245;69156;-69
2022/02/08 09:13:06;;;;;;;4.90;3.80;;;;;;;11.11;38.60;97636.20;110507;1244;60461;-69
2022/02/08 09:16:28;;;;;;;4.90;3.50;;;;;;;11.24;38.04;97638.65;110458;1245;60453;-69
2022/02/08 09:19:44;;;;;;;5.20;3.30;;;;;;;11.11;38.26;97643.49;110249;1246;72487;-69
2022/02/08 09:29:46;;;;;;;4.20;2.80;;;;;;;10.93;36.24;97644.27;110434;1247;60474;-72
2022/02/08 09:32:18;;;;;;;4.30;2.80;;;;;;;11.37;35.90;97645.16;110493;1245;73020;-71
2022/02/08 09:34:49;;;;;;;4.80;3.10;;;;;;;11.54;35.10;97647.05;110202;1247;68385;-69
2022/02/08 09:37:18;;;;;;;5.00;2.90;;;;;;;11.88;34.83;97642.01;110488;1245;69844;-71
2022/02/08 09:39:52;;;;;;;4.80;3.30;;;;;;;12.22;34.21;97645.38;110522;1245;60519;-69
2022/02/08 09:42:22;;;;;;;5.10;3.10;;;;;;;12.59;33.46;97646.89;110508;1244;60492;-69
2022/02/08 09:44:54;;;;;;;4.50;2.90;;;;;;;13.03;32.80;97648.89;110121;1247;73023;-69
2022/02/08 09:47:36;;;;;;;5.40;3.00;;;;;;;13.38;31.67;97656.29;110510;1244;67814;-70
2022/02/08 09:50:14;;;;;;;5.50;3.40;;;;;;;13.21;31.62;97654.33;110279;1247;69490;-69
2022/02/08 09:52:50;;;;;;;5.20;3.00;;;;;;;12.18;32.71;97650.86;110511;1247;60559;-69
2022/02/08 09:55:21;;;;;;;5.70;3.40;;;;;;;12.12;33.29;97650.70;110244;1247;60481;-70
2022/02/08 09:57:50;;;;;;;6.30;3.90;;;;;;;12.03;32.53;97649.38;110178;1247;73099;-69
2022/02/08 10:00:21;;;;;;;4.20;3.30;;;;;;;10.74;34.30;97649.42;110452;1247;69197;-69
2022/02/08 10:02:50;;;;;;;6.00;3.10;;;;;;;9.79;36.49;97655.89;110278;1247;69493;-69
2022/02/08 10:05:19;;;;;;;6.20;2.80;;;;;;;9.04;38.05;97660.66;110530;1245;60503;-71
2022/02/08 10:07:48;;;;;;;7.20;3.80;;;;;;;8.82;38.45;97659.65;110521;1247;60487;-69
2022/02/08 10:10:24;;;;;;;5.10;3.30;;;;;;;8.23;39.32;97663.68;110534;1246;72957;-68
2022/02/08 10:23:38;;;;;;;6.10;3.40;;;;;;;9.22;38.54;97666.52;110541;1245;73032;-69
2022/02/08 10:26:09;;;;;;;5.90;3.10;;;;;;;8.74;38.72;97668.60;110582;1243;69075;-69
2022/02/08 10:28:56;;;;;;;7.40;2.70;;;;;;;8.33;39.59;97673.70;110499;1244;69412;-69
2022/02/08 10:31:47;;;;;;;7.80;3.40;;;;;;;7.95;40.13;97677.27;110495;1247;60529;-69
2022/02/08 10:40:05;;;;;;;4.60;2.60;;;;;;;7.03;42.81;97686.96;110564;1247;68967;-69
2022/02/08 10:42:35;;;;;;;7.00;3.00;;;;;;;7.05;42.90;97685.08;110157;1247;68659;-69
2022/02/08 10:45:18;;;;;;;5.70;4.20;;;;;;;7.38;42.62;97683.98;110589;1247;60498;-69
2022/02/08 10:48:05;;;;;;;5.60;3.70;;;;;;;7.49;42.34;97687.89;110155;1247;60448;-69
2022/02/08 10:50:37;;;;;;;6.70;3.50;;;;;;;7.74;42.08;97686.48;110466;1247;72989;-69
2022/02/08 10:53:08;;;;;;;4.80;2.90;;;;;;;7.57;41.95;97685.74;110464;1247;68613;-69
2022/02/08 10:55:55;;;;;;;6.20;2.90;;;;;;;7.14;42.51;97681.81;110184;1247;68626;-69
2022/02/08 10:58:33;;;;;;;5.00;3.00;;;;;;;6.72;43.20;97684.47;110504;1247;60470;-69
2022/02/08 11:01:11;;;;;;;3.60;2.30;;;;;;;6.53;43.54;97684.60;110265;1247;60521;-69
2022/02/08 11:04:02;;;;;;;7.20;3.00;;;;;;;6.37;43.69;97688.55;110307;1247;72413;-69
2022/02/08 11:06:42;;;;;;;4.60;3.40;;;;;;;5.85;44.67;97685.95;110594;1244;68601;-69
2022/02/08 11:12:24;;;;;;;4.20;2.50;;;;;;;5.24;45.56;97689.39;110565;1246;60505;-69
2022/02/08 11:20:28;;;;;;;6.40;2.60;;;;;;;5.20;46.08;97687.84;110225;1247;68700;-69
2022/02/08 11:23:22;;;;;;;6.50;2.80;;;;;;;5.63;45.93;97689.96;110202;1247;70457;-68
2022/02/08 11:25:53;;;;;;;5.90;3.50;;;;;;;5.77;45.70;97683.73;110513;1247;60915;-68
2022/02/08 11:28:35;;;;;;;6.80;4.10;;;;;;;5.55;46.46;97687.75;110266;1247;60513;-69
2022/02/08 11:45:20;;;;;;;26.90;18.00;;;;;;;5.98;46.54;97696.38;110500;1247;72407;-69
2022/02/08 11:51:36;;;;;;;15.40;11.50;;;;;;;6.23;45.73;97700.16;110226;1247;69488;-68
2022/02/08 11:53:37;;;;;;;12.30;11.00;;;;;;;5.97;46.40;97708.36;110340;1247;60479;-69
2022/02/08 11:56:26;;;;;;;10.80;7.50;;;;;;;5.74;46.83;97709.65;110501;1246;60493;-68
2022/02/08 12:12:41;;;;;;;5.40;2.90;;;;;;;8.24;40.67;97710.88;110486;1244;72446;-69
2022/02/08 12:50:10;;;;;;;5.90;2.60;;;;;;;15.87;27.59;97729.09;110556;1244;60504;-69
2022/02/08 12:55:43;;;;;;;4.60;2.20;;;;;;;16.08;26.67;97735.30;110598;1244;72462;-70
2022/02/08 12:58:22;;;;;;;5.10;2.60;;;;;;;15.85;26.96;97734.19;110577;1244;67431;-69
2022/02/08 13:04:00;;;;;;;5.60;2.60;;;;;;;15.03;28.33;97740.64;110502;1244;60554;-70
2022/02/08 13:15:54;;;;;;;8.20;3.30;;;;;;;11.64;34.14;97753.87;110539;1244;69376;-70
2022/02/08 13:18:45;;;;;;;6.80;3.40;;;;;;;12.37;33.46;97751.52;110573;1245;60561;-69
2022/02/08 14:08:27;;;;;;;8.40;4.20;;;;;;;4.85;48.86;97777.38;110561;1244;68379;-69
2022/02/08 14:19:20;;;;;;;68.20;31.40;;;;;;;5.66;48.54;97781.83;110338;1247;72229;-69
2022/02/08 14:22:10;;;;;;;55.40;24.00;;;;;;;5.43;48.99;97787.71;110192;1248;68465;-69
2022/02/08 14:30:49;;;;;;;52.10;23.10;;;;;;;4.35;52.18;97791.08;110602;1244;60564;-67
2022/02/08 15:08:56;;;;;;;12.60;6.70;;;;;;;2.37;60.43;97830.88;110531;1244;60509;-69
2022/02/08 15:11:34;;;;;;;9.90;5.30;;;;;;;2.28;60.64;97830.50;110515;1245;60463;-69
2022/02/08 15:14:03;;;;;;;12.00;6.20;;;;;;;2.15;61.68;97830.42;110144;1247;71550;-68
2022/02/08 15:16:35;;;;;;;9.20;5.10;;;;;;;2.16;59.89;97828.48;110417;1246;68392;-69
2022/02/08 15:19:05;;;;;;;14.20;6.50;;;;;;;2.17;59.55;97830.51;110441;1246;68477;-69
2022/02/08 15:21:36;;;;;;;10.10;5.90;;;;;;;2.18;60.55;97826.38;110435;1245;60474;-69
2022/02/08 15:24:08;;;;;;;8.60;5.30;;;;;;;2.16;60.36;97824.69;110532;1244;60561;-69
2022/02/08 15:26:45;;;;;;;8.40;5.10;;;;;;;2.10;61.45;97831.76;110263;1247;72920;-69
2022/02/08 15:29:16;;;;;;;9.50;5.70;;;;;;;2.10;60.92;97833.85;110604;1244;69004;-69
2022/02/08 15:31:45;;;;;;;12.60;6.90;;;;;;;2.07;60.97;97833.23;110302;1247;70016;-69
2022/02/08 15:34:14;;;;;;;10.20;6.40;;;;;;;2.01;61.81;97835.65;110567;1245;60488;-69
2022/02/08 15:36:42;;;;;;;15.70;8.20;;;;;;;1.97;61.93;97834.08;110419;1246;60557;-69
2022/02/08 15:39:11;;;;;;;12.40;7.90;;;;;;;1.90;62.79;97839.44;110570;1244;71767;-69
2022/02/08 15:41:41;;;;;;;17.60;10.00;;;;;;;1.92;61.93;97839.59;110189;1248;69057;-68
2022/02/08 15:44:17;;;;;;;15.50;8.70;;;;;;;1.84;63.01;97846.68;110544;1244;69832;-69
2022/02/08 15:46:46;;;;;;;13.00;7.30;;;;;;;1.82;62.16;97847.11;110467;1244;60535;-69
2022/02/08 15:49:15;;;;;;;9.50;5.30;;;;;;;1.82;61.65;97853.11;110427;1246;60547;-68
2022/02/08 15:51:47;;;;;;;13.00;6.30;;;;;;;1.92;62.69;97854.02;110336;1247;72761;-69
2022/02/08 16:05:25;;;;;;;12.50;6.70;;;;;;;1.66;64.03;97871.81;110234;1247;72189;-68
2022/02/08 16:08:24;;;;;;;10.80;6.60;;;;;;;1.53;64.56;97874.25;110340;1244;68998;-68
2022/02/08 16:11:05;;;;;;;11.50;6.80;;;;;;;1.54;64.13;97876.81;110207;1247;69377;-69
2022/02/08 16:13:47;;;;;;;13.20;6.60;;;;;;;1.55;63.99;97880.39;110173;1248;60496;-71
2022/02/08 16:27:18;;;;;;;19.50;9.80;;;;;;;1.29;65.80;97885.43;110510;1244;60454;-70
2022/02/08 16:30:35;;;;;;;19.10;10.00;;;;;;;1.22;66.57;97888.36;110539;1244;60496;-68
2022/02/08 16:49:39;;;;;;;11.40;6.80;;;;;;;1.20;67.17;97919.16;110423;1244;68595;-69
2022/02/08 16:55:03;;;;;;;14.00;8.30;;;;;;;1.13;67.47;97920.39;110442;1244;60910;-68
2022/02/08 16:57:36;;;;;;;14.90;9.30;;;;;;;0.93;68.78;97917.29;110525;1244;60514;-68
2022/02/08 17:00:11;;;;;;;11.90;8.10;;;;;;;0.92;68.74;97912.36;110427;1245;71380;-68
2022/02/08 17:02:47;;;;;;;12.00;8.20;;;;;;;0.86;69.09;97922.29;110468;1244;69060;-68
2022/02/08 17:05:17;;;;;;;16.20;9.90;;;;;;;0.85;69.33;97932.61;110254;1246;68878;-70
2022/02/08 17:07:47;;;;;;;13.40;7.30;;;;;;;0.80;69.35;97937.20;110497;1244;60494;-69
2022/02/08 17:10:36;;;;;;;9.60;6.30;;;;;;;0.80;69.17;97935.14;110562;1244;60499;-68
2022/02/08 17:16:11;;;;;;;13.80;7.40;;;;;;;0.72;69.65;97931.56;110576;1245;69206;-68
2022/02/08 17:47:00;;;;;;;7.10;4.60;;;;;;;0.40;68.46;97946.73;110455;1245;68604;-68
2022/02/08 17:49:29;;;;;;;12.90;4.40;;;;;;;0.44;68.15;97946.33;110424;1244;60809;-68
2022/02/08 17:51:58;;;;;;;6.00;3.70;;;;;;;0.39;68.27;97947.98;110546;1245;60536;-68
2022/02/08 17:54:26;;;;;;;10.30;5.60;;;;;;;0.34;68.27;97945.36;110402;1244;72759;-68
2022/02/08 17:56:57;;;;;;;8.80;4.90;;;;;;;0.20;69.21;97943.60;110474;1244;67793;-68
2022/02/08 17:59:26;;;;;;;10.60;6.30;;;;;;;0.14;68.92;97940.16;110537;1244;70117;-67
2022/02/08 18:01:55;;;;;;;11.80;5.90;;;;;;;-0.05;70.32;97935.27;110437;1244;60477;-68
2022/02/08 18:04:24;;;;;;;10.20;5.30;;;;;;;-0.15;70.61;97938.58;110227;1246;60609;-69
2022/02/08 18:06:53;;;;;;;8.50;5.30;;;;;;;-0.17;70.43;97938.60;110572;1244;71819;-70
2022/02/08 18:09:24;;;;;;;10.20;7.00;;;;;;;-0.22;70.51;97941.80;110516;1244;68587;-67
2022/02/08 18:11:55;;;;;;;13.40;7.60;;;;;;;-0.37;71.63;97945.03;110567;1245;69366;-70
2022/02/08 18:14:25;;;;;;;10.20;7.70;;;;;;;-0.42;71.99;97947.54;110537;1244;60500;-69
2022/02/08 18:17:17;;;;;;;9.70;7.00;;;;;;;-0.45;71.67;97949.13;110471;1244;60500;-68
2022/02/08 18:19:58;;;;;;;11.10;7.00;;;;;;;-0.49;71.69;97943.91;110485;1244;71569;-68
2022/02/08 18:22:34;;;;;;;13.90;8.50;;;;;;;-0.53;71.89;97945.67;110447;1244;68652;-67
2022/02/08 19:11:59;;;;;;;14.60;10.40;;;;;;;-1.17;74.91;97951.86;110383;1246;60564;-68